sensor_id;sensor_type;location;lat;lon;timestamp;P1;durP1;ratioP1;P2;durP2;ratioP2
58470;SDS011;44258;51.288;12.068;2022-07-06T00:01:09;3.08;;;1.58;;
58470;SDS011;44258;51.288;12.068;2022-07-06T00:03:36;3.53;;;1.65;;
58470;SDS011;44258;51.288;12.068;2022-07-06T00:06:02;2.30;;;1.52;;
58470;SDS011;44258;51.288;12.068;2022-07-06T00:08:29;4.15;;;2.20;;
58470;SDS011;44258;51.288;12.068;2022-07-06T00:10:55;3.80;;;1.92;;
58470;SDS011;44258;51.288;12.068;2022-07-06T00:13:22;4.07;;;2.10;;
58470;SDS011;44258;51.288;12.068;2022-07-06T00:15:48;4.43;;;2.00;;
58470;SDS011;44258;51.288;12.068;2022-07-06T00:18:16;3.05;;;1.67;;
58470;SDS011;44258;51.288;12.068;2022-07-06T00:20:43;3.30;;;1.60;;
58470;SDS011;44258;51.288;12.068;2022-07-06T00:23:09;4.10;;;1.83;;
58470;SDS011;44258;51.288;12.068;2022-07-06T00:25:36;3.72;;;1.50;;
58470;SDS011;44258;51.288;12.068;2022-07-06T00:28:03;2.72;;;1.20;;
58470;SDS011;44258;51.288;12.068;2022-07-06T00:30:29;2.17;;;1.30;;
58470;SDS011;44258;51.288;12.068;2022-07-06T00:32:56;1.58;;;1.08;;
58470;SDS011;44258;51.288;12.068;2022-07-06T00:35:25;3.72;;;1.48;;
58470;SDS011;44258;51.288;12.068;2022-07-06T00:37:52;2.60;;;1.48;;
58470;SDS011;44258;51.288;12.068;2022-07-06T00:40:20;4.50;;;1.60;;
58470;SDS011;44258;51.288;12.068;2022-07-06T00:42:47;3.22;;;1.50;;
58470;SDS011;44258;51.288;12.068;2022-07-06T00:45:14;4.72;;;1.50;;
58470;SDS011;44258;51.288;12.068;2022-07-06T00:47:42;2.80;;;1.40;;
58470;SDS011;44258;51.288;12.068;2022-07-06T00:50:09;3.53;;;1.30;;
58470;SDS011;44258;51.288;12.068;2022-07-06T00:52:41;1.55;;;1.23;;
58470;SDS011;44258;51.288;12.068;2022-07-06T00:55:10;2.63;;;1.30;;
58470;SDS011;44258;51.288;12.068;2022-07-06T00:57:37;1.70;;;1.38;;
58470;SDS011;44258;51.288;12.068;2022-07-06T01:00:05;2.58;;;1.40;;
58470;SDS011;44258;51.288;12.068;2022-07-06T01:02:34;2.10;;;1.40;;
58470;SDS011;44258;51.288;12.068;2022-07-06T01:05:03;2.72;;;1.50;;
58470;SDS011;44258;51.288;12.068;2022-07-06T01:07:31;3.00;;;1.40;;
58470;SDS011;44258;51.288;12.068;2022-07-06T01:10:00;2.55;;;1.20;;
58470;SDS011;44258;51.288;12.068;2022-07-06T01:12:28;2.42;;;1.50;;
58470;SDS011;44258;51.288;12.068;2022-07-06T01:14:55;3.20;;;1.30;;
58470;SDS011;44258;51.288;12.068;2022-07-06T01:17:22;3.95;;;1.33;;
58470;SDS011;44258;51.288;12.068;2022-07-06T01:19:50;2.40;;;1.50;;
58470;SDS011;44258;51.288;12.068;2022-07-06T01:22:18;4.20;;;1.55;;
58470;SDS011;44258;51.288;12.068;2022-07-06T01:24:44;3.58;;;1.40;;
58470;SDS011;44258;51.288;12.068;2022-07-06T01:27:11;2.65;;;1.30;;
58470;SDS011;44258;51.288;12.068;2022-07-06T01:29:37;1.85;;;1.13;;
58470;SDS011;44258;51.288;12.068;2022-07-06T01:32:04;1.55;;;1.17;;
58470;SDS011;44258;51.288;12.068;2022-07-06T01:34:31;2.75;;;1.35;;
58470;SDS011;44258;51.288;12.068;2022-07-06T01:36:58;3.65;;;1.60;;
58470;SDS011;44258;51.288;12.068;2022-07-06T01:39:25;4.35;;;1.40;;
58470;SDS011;44258;51.288;12.068;2022-07-06T01:41:52;2.85;;;1.40;;
58470;SDS011;44258;51.288;12.068;2022-07-06T01:44:18;3.45;;;1.50;;
58470;SDS011;44258;51.288;12.068;2022-07-06T01:46:45;1.92;;;1.17;;
58470;SDS011;44258;51.288;12.068;2022-07-06T01:49:11;4.22;;;1.60;;
58470;SDS011;44258;51.288;12.068;2022-07-06T01:51:38;3.40;;;1.50;;
58470;SDS011;44258;51.288;12.068;2022-07-06T01:54:04;1.73;;;1.20;;
58470;SDS011;44258;51.288;12.068;2022-07-06T01:56:32;3.08;;;1.20;;
58470;SDS011;44258;51.288;12.068;2022-07-06T01:58:59;2.35;;;1.50;;
58470;SDS011;44258;51.288;12.068;2022-07-06T02:01:25;2.20;;;1.35;;
58470;SDS011;44258;51.288;12.068;2022-07-06T02:03:52;2.72;;;1.60;;
58470;SDS011;44258;51.288;12.068;2022-07-06T02:06:18;3.45;;;1.45;;
58470;SDS011;44258;51.288;12.068;2022-07-06T02:08:45;2.28;;;1.25;;
58470;SDS011;44258;51.288;12.068;2022-07-06T02:11:11;3.03;;;1.65;;
58470;SDS011;44258;51.288;12.068;2022-07-06T02:13:39;3.50;;;1.60;;
58470;SDS011;44258;51.288;12.068;2022-07-06T02:16:06;2.65;;;1.40;;
58470;SDS011;44258;51.288;12.068;2022-07-06T02:18:32;3.85;;;1.90;;
58470;SDS011;44258;51.288;12.068;2022-07-06T02:20:59;5.15;;;2.05;;
58470;SDS011;44258;51.288;12.068;2022-07-06T02:23:25;1.85;;;1.38;;
58470;SDS011;44258;51.288;12.068;2022-07-06T02:25:52;3.63;;;1.45;;
58470;SDS011;44258;51.288;12.068;2022-07-06T02:28:18;2.67;;;1.33;;
58470;SDS011;44258;51.288;12.068;2022-07-06T02:30:46;2.55;;;1.40;;
58470;SDS011;44258;51.288;12.068;2022-07-06T02:33:13;2.90;;;1.60;;
58470;SDS011;44258;51.288;12.068;2022-07-06T02:35:39;4.00;;;1.63;;
58470;SDS011;44258;51.288;12.068;2022-07-06T02:38:07;2.45;;;1.42;;
58470;SDS011;44258;51.288;12.068;2022-07-06T02:40:34;2.80;;;1.50;;
58470;SDS011;44258;51.288;12.068;2022-07-06T02:43:00;3.00;;;1.40;;
58470;SDS011;44258;51.288;12.068;2022-07-06T02:45:27;2.22;;;1.40;;
58470;SDS011;44258;51.288;12.068;2022-07-06T02:47:55;3.28;;;1.70;;
58470;SDS011;44258;51.288;12.068;2022-07-06T02:50:22;3.65;;;1.50;;
58470;SDS011;44258;51.288;12.068;2022-07-06T02:52:49;4.57;;;1.67;;
58470;SDS011;44258;51.288;12.068;2022-07-06T02:55:16;3.17;;;1.58;;
58470;SDS011;44258;51.288;12.068;2022-07-06T02:57:42;4.43;;;1.55;;
58470;SDS011;44258;51.288;12.068;2022-07-06T03:00:09;3.13;;;1.50;;
58470;SDS011;44258;51.288;12.068;2022-07-06T03:02:36;2.97;;;1.48;;
58470;SDS011;44258;51.288;12.068;2022-07-06T03:05:05;6.13;;;1.65;;
58470;SDS011;44258;51.288;12.068;2022-07-06T03:07:32;2.50;;;1.50;;
58470;SDS011;44258;51.288;12.068;2022-07-06T03:09:58;2.25;;;1.40;;
58470;SDS011;44258;51.288;12.068;2022-07-06T03:12:25;2.67;;;1.55;;
58470;SDS011;44258;51.288;12.068;2022-07-06T03:14:51;6.70;;;1.75;;
58470;SDS011;44258;51.288;12.068;2022-07-06T03:17:18;4.15;;;1.60;;
58470;SDS011;44258;51.288;12.068;2022-07-06T03:19:44;6.90;;;1.80;;
58470;SDS011;44258;51.288;12.068;2022-07-06T03:22:12;1.90;;;1.30;;
58470;SDS011;44258;51.288;12.068;2022-07-06T03:24:38;5.75;;;2.08;;
58470;SDS011;44258;51.288;12.068;2022-07-06T03:27:05;2.35;;;1.50;;
58470;SDS011;44258;51.288;12.068;2022-07-06T03:29:31;3.13;;;1.55;;
58470;SDS011;44258;51.288;12.068;2022-07-06T03:31:58;2.92;;;1.52;;
58470;SDS011;44258;51.288;12.068;2022-07-06T03:34:25;2.97;;;1.50;;
58470;SDS011;44258;51.288;12.068;2022-07-06T03:36:51;3.90;;;1.60;;
58470;SDS011;44258;51.288;12.068;2022-07-06T03:39:19;5.63;;;1.90;;
58470;SDS011;44258;51.288;12.068;2022-07-06T03:41:46;3.33;;;1.58;;
58470;SDS011;44258;51.288;12.068;2022-07-06T03:44:12;2.53;;;1.50;;
58470;SDS011;44258;51.288;12.068;2022-07-06T03:46:39;3.78;;;1.70;;
58470;SDS011;44258;51.288;12.068;2022-07-06T03:49:05;6.10;;;1.58;;
58470;SDS011;44258;51.288;12.068;2022-07-06T03:51:32;3.00;;;1.48;;
58470;SDS011;44258;51.288;12.068;2022-07-06T03:53:58;2.80;;;1.40;;
58470;SDS011;44258;51.288;12.068;2022-07-06T03:56:26;2.75;;;1.48;;
58470;SDS011;44258;51.288;12.068;2022-07-06T03:58:58;5.40;;;1.70;;
58470;SDS011;44258;51.288;12.068;2022-07-06T04:01:26;3.58;;;1.50;;
58470;SDS011;44258;51.288;12.068;2022-07-06T04:03:52;2.50;;;1.48;;
58470;SDS011;44258;51.288;12.068;2022-07-06T04:06:19;3.10;;;1.40;;
58470;SDS011;44258;51.288;12.068;2022-07-06T04:08:46;2.80;;;1.50;;
58470;SDS011;44258;51.288;12.068;2022-07-06T04:11:12;2.53;;;1.40;;
58470;SDS011;44258;51.288;12.068;2022-07-06T04:13:40;3.50;;;1.60;;
58470;SDS011;44258;51.288;12.068;2022-07-06T04:16:07;4.78;;;1.60;;
58470;SDS011;44258;51.288;12.068;2022-07-06T04:18:34;2.65;;;1.35;;
58470;SDS011;44258;51.288;12.068;2022-07-06T04:21:01;2.63;;;1.45;;
58470;SDS011;44258;51.288;12.068;2022-07-06T04:23:28;3.28;;;1.42;;
58470;SDS011;44258;51.288;12.068;2022-07-06T04:25:54;3.72;;;1.45;;
58470;SDS011;44258;51.288;12.068;2022-07-06T04:28:21;3.05;;;1.50;;
58470;SDS011;44258;51.288;12.068;2022-07-06T04:30:49;2.38;;;1.48;;
58470;SDS011;44258;51.288;12.068;2022-07-06T04:33:15;4.28;;;1.30;;
58470;SDS011;44258;51.288;12.068;2022-07-06T04:35:42;3.05;;;1.65;;
58470;SDS011;44258;51.288;12.068;2022-07-06T04:38:08;2.83;;;1.60;;
58470;SDS011;44258;51.288;12.068;2022-07-06T04:40:35;3.83;;;1.67;;
58470;SDS011;44258;51.288;12.068;2022-07-06T04:43:01;3.65;;;1.70;;
58470;SDS011;44258;51.288;12.068;2022-07-06T04:45:28;5.20;;;1.75;;
58470;SDS011;44258;51.288;12.068;2022-07-06T04:47:56;4.32;;;1.45;;
58470;SDS011;44258;51.288;12.068;2022-07-06T04:50:22;2.83;;;1.45;;
58470;SDS011;44258;51.288;12.068;2022-07-06T04:52:49;3.50;;;1.52;;
58470;SDS011;44258;51.288;12.068;2022-07-06T04:55:15;6.47;;;1.70;;
58470;SDS011;44258;51.288;12.068;2022-07-06T04:57:42;2.60;;;1.15;;
58470;SDS011;44258;51.288;12.068;2022-07-06T05:00:09;5.38;;;1.58;;
58470;SDS011;44258;51.288;12.068;2022-07-06T05:02:36;2.00;;;1.08;;
58470;SDS011;44258;51.288;12.068;2022-07-06T05:05:04;4.70;;;1.38;;
58470;SDS011;44258;51.288;12.068;2022-07-06T05:07:31;3.92;;;1.60;;
58470;SDS011;44258;51.288;12.068;2022-07-06T05:09:59;2.45;;;1.50;;
58470;SDS011;44258;51.288;12.068;2022-07-06T05:12:25;3.50;;;1.27;;
58470;SDS011;44258;51.288;12.068;2022-07-06T05:14:52;3.63;;;1.10;;
58470;SDS011;44258;51.288;12.068;2022-07-06T05:17:18;2.55;;;1.30;;
58470;SDS011;44258;51.288;12.068;2022-07-06T05:19:45;2.22;;;1.45;;
58470;SDS011;44258;51.288;12.068;2022-07-06T05:22:13;2.35;;;1.40;;
58470;SDS011;44258;51.288;12.068;2022-07-06T05:24:39;4.00;;;1.58;;
58470;SDS011;44258;51.288;12.068;2022-07-06T05:27:06;3.65;;;1.38;;
58470;SDS011;44258;51.288;12.068;2022-07-06T05:29:32;3.83;;;1.55;;
58470;SDS011;44258;51.288;12.068;2022-07-06T05:31:59;3.25;;;1.48;;
58470;SDS011;44258;51.288;12.068;2022-07-06T05:34:26;3.50;;;1.70;;
58470;SDS011;44258;51.288;12.068;2022-07-06T05:36:52;2.78;;;1.25;;
58470;SDS011;44258;51.288;12.068;2022-07-06T05:39:20;4.65;;;1.38;;
58470;SDS011;44258;51.288;12.068;2022-07-06T05:41:47;1.75;;;1.23;;
58470;SDS011;44258;51.288;12.068;2022-07-06T05:44:14;5.40;;;1.48;;
58470;SDS011;44258;51.288;12.068;2022-07-06T05:46:41;2.20;;;1.15;;
58470;SDS011;44258;51.288;12.068;2022-07-06T05:49:07;3.85;;;1.30;;
58470;SDS011;44258;51.288;12.068;2022-07-06T05:51:52;3.25;;;1.10;;
58470;SDS011;44258;51.288;12.068;2022-07-06T05:54:18;3.15;;;1.48;;
58470;SDS011;44258;51.288;12.068;2022-07-06T05:56:46;4.00;;;1.45;;
58470;SDS011;44258;51.288;12.068;2022-07-06T05:59:12;3.20;;;1.33;;
58470;SDS011;44258;51.288;12.068;2022-07-06T06:01:39;2.58;;;1.17;;
58470;SDS011;44258;51.288;12.068;2022-07-06T06:04:05;3.58;;;1.10;;
58470;SDS011;44258;51.288;12.068;2022-07-06T06:06:32;1.63;;;1.00;;
58470;SDS011;44258;51.288;12.068;2022-07-06T06:08:59;3.05;;;1.20;;
58470;SDS011;44258;51.288;12.068;2022-07-06T06:11:25;3.13;;;1.40;;
58470;SDS011;44258;51.288;12.068;2022-07-06T06:13:53;2.70;;;1.05;;
58470;SDS011;44258;51.288;12.068;2022-07-06T06:16:20;3.40;;;1.20;;
58470;SDS011;44258;51.288;12.068;2022-07-06T06:18:46;1.85;;;1.08;;
58470;SDS011;44258;51.288;12.068;2022-07-06T06:21:13;1.42;;;0.98;;
58470;SDS011;44258;51.288;12.068;2022-07-06T06:23:39;1.98;;;1.10;;
58470;SDS011;44258;51.288;12.068;2022-07-06T06:26:06;1.73;;;1.00;;
58470;SDS011;44258;51.288;12.068;2022-07-06T06:28:32;2.13;;;1.33;;
58470;SDS011;44258;51.288;12.068;2022-07-06T06:31:00;3.47;;;1.38;;
58470;SDS011;44258;51.288;12.068;2022-07-06T06:33:27;3.13;;;1.30;;
58470;SDS011;44258;51.288;12.068;2022-07-06T06:35:53;1.83;;;1.00;;
58470;SDS011;44258;51.288;12.068;2022-07-06T06:38:21;2.05;;;1.10;;
58470;SDS011;44258;51.288;12.068;2022-07-06T06:40:50;2.88;;;1.20;;
58470;SDS011;44258;51.288;12.068;2022-07-06T06:43:17;2.42;;;1.30;;
58470;SDS011;44258;51.288;12.068;2022-07-06T06:45:44;1.92;;;1.10;;
58470;SDS011;44258;51.288;12.068;2022-07-06T06:48:13;2.80;;;1.48;;
58470;SDS011;44258;51.288;12.068;2022-07-06T06:50:39;2.92;;;1.23;;
58470;SDS011;44258;51.288;12.068;2022-07-06T06:53:06;3.40;;;1.27;;
58470;SDS011;44258;51.288;12.068;2022-07-06T06:55:32;3.65;;;1.05;;
58470;SDS011;44258;51.288;12.068;2022-07-06T06:57:59;3.95;;;1.27;;
58470;SDS011;44258;51.288;12.068;2022-07-06T07:00:25;2.95;;;1.15;;
58470;SDS011;44258;51.288;12.068;2022-07-06T07:02:52;1.55;;;1.10;;
58470;SDS011;44258;51.288;12.068;2022-07-06T07:05:20;2.67;;;1.00;;
58470;SDS011;44258;51.288;12.068;2022-07-06T07:07:46;4.15;;;1.60;;
58470;SDS011;44258;51.288;12.068;2022-07-06T07:10:13;1.20;;;1.00;;
58470;SDS011;44258;51.288;12.068;2022-07-06T07:12:43;2.55;;;1.13;;
58470;SDS011;44258;51.288;12.068;2022-07-06T07:15:11;3.08;;;1.40;;
58470;SDS011;44258;51.288;12.068;2022-07-06T07:17:37;1.83;;;1.13;;
58470;SDS011;44258;51.288;12.068;2022-07-06T07:20:05;2.53;;;1.10;;
58470;SDS011;44258;51.288;12.068;2022-07-06T07:22:33;1.65;;;0.98;;
58470;SDS011;44258;51.288;12.068;2022-07-06T07:25:00;1.55;;;1.00;;
58470;SDS011;44258;51.288;12.068;2022-07-06T07:27:27;1.98;;;1.00;;
58470;SDS011;44258;51.288;12.068;2022-07-06T07:29:53;2.10;;;0.98;;
58470;SDS011;44258;51.288;12.068;2022-07-06T07:32:20;4.63;;;1.33;;
58470;SDS011;44258;51.288;12.068;2022-07-06T07:34:46;1.90;;;1.25;;
58470;SDS011;44258;51.288;12.068;2022-07-06T07:37:13;2.40;;;0.95;;
58470;SDS011;44258;51.288;12.068;2022-07-06T07:39:41;5.25;;;1.40;;
58470;SDS011;44258;51.288;12.068;2022-07-06T07:42:07;2.53;;;0.90;;
58470;SDS011;44258;51.288;12.068;2022-07-06T07:44:34;2.65;;;0.85;;
58470;SDS011;44258;51.288;12.068;2022-07-06T07:47:00;3.25;;;1.40;;
58470;SDS011;44258;51.288;12.068;2022-07-06T07:49:27;1.17;;;0.80;;
58470;SDS011;44258;51.288;12.068;2022-07-06T07:51:53;3.47;;;1.02;;
58470;SDS011;44258;51.288;12.068;2022-07-06T07:54:20;3.05;;;1.17;;
58470;SDS011;44258;51.288;12.068;2022-07-06T07:56:47;1.75;;;1.00;;
58470;SDS011;44258;51.288;12.068;2022-07-06T07:59:14;3.78;;;1.40;;
58470;SDS011;44258;51.288;12.068;2022-07-06T08:01:40;2.40;;;1.15;;
58470;SDS011;44258;51.288;12.068;2022-07-06T08:04:07;3.28;;;1.10;;
58470;SDS011;44258;51.288;12.068;2022-07-06T08:06:33;2.33;;;1.00;;
58470;SDS011;44258;51.288;12.068;2022-07-06T08:09:00;3.25;;;1.30;;
58470;SDS011;44258;51.288;12.068;2022-07-06T08:11:28;4.68;;;1.20;;
58470;SDS011;44258;51.288;12.068;2022-07-06T08:13:56;1.58;;;0.90;;
58470;SDS011;44258;51.288;12.068;2022-07-06T08:16:22;3.95;;;1.30;;
58470;SDS011;44258;51.288;12.068;2022-07-06T08:18:49;3.97;;;1.35;;
58470;SDS011;44258;51.288;12.068;2022-07-06T08:21:15;1.30;;;0.88;;
58470;SDS011;44258;51.288;12.068;2022-07-06T08:23:42;3.53;;;1.13;;
58470;SDS011;44258;51.288;12.068;2022-07-06T08:26:09;2.05;;;0.98;;
58470;SDS011;44258;51.288;12.068;2022-07-06T08:28:36;2.17;;;1.00;;
58470;SDS011;44258;51.288;12.068;2022-07-06T08:31:04;2.20;;;1.00;;
58470;SDS011;44258;51.288;12.068;2022-07-06T08:33:30;3.17;;;1.50;;
58470;SDS011;44258;51.288;12.068;2022-07-06T08:35:57;1.52;;;1.20;;
58470;SDS011;44258;51.288;12.068;2022-07-06T08:38:24;2.95;;;1.00;;
58470;SDS011;44258;51.288;12.068;2022-07-06T08:40:50;2.97;;;1.48;;
58470;SDS011;44258;51.288;12.068;2022-07-06T08:43:17;2.03;;;0.98;;
58470;SDS011;44258;51.288;12.068;2022-07-06T08:45:44;2.17;;;1.10;;
58470;SDS011;44258;51.288;12.068;2022-07-06T08:48:13;2.78;;;1.10;;
58470;SDS011;44258;51.288;12.068;2022-07-06T08:50:40;3.80;;;1.05;;
58470;SDS011;44258;51.288;12.068;2022-07-06T08:53:07;3.33;;;1.42;;
58470;SDS011;44258;51.288;12.068;2022-07-06T08:55:33;1.38;;;1.00;;
58470;SDS011;44258;51.288;12.068;2022-07-06T08:58:01;3.13;;;1.60;;
58470;SDS011;44258;51.288;12.068;2022-07-06T09:00:29;1.48;;;1.00;;
58470;SDS011;44258;51.288;12.068;2022-07-06T09:02:58;3.28;;;1.30;;
58470;SDS011;44258;51.288;12.068;2022-07-06T09:05:27;1.85;;;1.10;;
58470;SDS011;44258;51.288;12.068;2022-07-06T09:07:55;2.38;;;1.17;;
58470;SDS011;44258;51.288;12.068;2022-07-06T09:10:22;1.85;;;1.15;;
58470;SDS011;44258;51.288;12.068;2022-07-06T09:12:49;1.85;;;1.13;;
58470;SDS011;44258;51.288;12.068;2022-07-06T09:15:16;3.25;;;1.20;;
58470;SDS011;44258;51.288;12.068;2022-07-06T09:17:42;3.17;;;1.10;;
58470;SDS011;44258;51.288;12.068;2022-07-06T09:20:10;2.50;;;1.15;;
58470;SDS011;44258;51.288;12.068;2022-07-06T09:22:40;2.95;;;1.35;;
58470;SDS011;44258;51.288;12.068;2022-07-06T09:25:08;1.88;;;1.17;;
58470;SDS011;44258;51.288;12.068;2022-07-06T09:27:36;1.67;;;1.30;;
58470;SDS011;44258;51.288;12.068;2022-07-06T09:30:09;2.70;;;1.20;;
58470;SDS011;44258;51.288;12.068;2022-07-06T09:32:39;2.67;;;1.15;;
58470;SDS011;44258;51.288;12.068;2022-07-06T09:35:07;3.35;;;1.30;;
58470;SDS011;44258;51.288;12.068;2022-07-06T09:37:34;1.90;;;0.93;;
58470;SDS011;44258;51.288;12.068;2022-07-06T09:40:02;4.95;;;1.27;;
58470;SDS011;44258;51.288;12.068;2022-07-06T09:42:42;1.88;;;1.25;;
58470;SDS011;44258;51.288;12.068;2022-07-06T09:45:08;2.83;;;1.33;;
58470;SDS011;44258;51.288;12.068;2022-07-06T09:47:35;1.95;;;1.05;;
58470;SDS011;44258;51.288;12.068;2022-07-06T09:50:04;2.58;;;1.42;;
58470;SDS011;44258;51.288;12.068;2022-07-06T09:52:33;2.55;;;1.40;;
58470;SDS011;44258;51.288;12.068;2022-07-06T09:55:01;1.27;;;1.08;;
58470;SDS011;44258;51.288;12.068;2022-07-06T09:57:32;3.72;;;1.20;;
58470;SDS011;44258;51.288;12.068;2022-07-06T09:59:58;2.13;;;1.10;;
58470;SDS011;44258;51.288;12.068;2022-07-06T10:02:25;2.63;;;1.20;;
58470;SDS011;44258;51.288;12.068;2022-07-06T10:04:53;3.60;;;1.40;;
58470;SDS011;44258;51.288;12.068;2022-07-06T10:07:21;2.83;;;1.15;;
58470;SDS011;44258;51.288;12.068;2022-07-06T10:09:50;1.73;;;0.90;;
58470;SDS011;44258;51.288;12.068;2022-07-06T10:12:19;2.85;;;1.00;;
58470;SDS011;44258;51.288;12.068;2022-07-06T10:14:47;4.32;;;1.40;;
58470;SDS011;44258;51.288;12.068;2022-07-06T10:17:13;3.13;;;0.90;;
58470;SDS011;44258;51.288;12.068;2022-07-06T10:19:41;1.27;;;0.95;;
58470;SDS011;44258;51.288;12.068;2022-07-06T10:22:10;2.05;;;1.05;;
58470;SDS011;44258;51.288;12.068;2022-07-06T10:24:37;1.48;;;0.98;;
58470;SDS011;44258;51.288;12.068;2022-07-06T10:27:08;3.15;;;1.25;;
58470;SDS011;44258;51.288;12.068;2022-07-06T10:29:37;2.45;;;1.10;;
58470;SDS011;44258;51.288;12.068;2022-07-06T10:32:03;1.60;;;0.98;;
58470;SDS011;44258;51.288;12.068;2022-07-06T10:34:32;2.00;;;1.02;;
58470;SDS011;44258;51.288;12.068;2022-07-06T10:37:01;2.58;;;1.50;;
58470;SDS011;44258;51.288;12.068;2022-07-06T10:39:31;4.22;;;1.23;;
58470;SDS011;44258;51.288;12.068;2022-07-06T10:45:11;3.55;;;1.30;;
58470;SDS011;44258;51.288;12.068;2022-07-06T10:47:39;2.17;;;1.05;;
58470;SDS011;44258;51.288;12.068;2022-07-06T10:50:07;2.38;;;1.05;;
58470;SDS011;44258;51.288;12.068;2022-07-06T10:55:27;2.00;;;1.10;;
58470;SDS011;44258;51.288;12.068;2022-07-06T10:57:55;1.45;;;0.85;;
58470;SDS011;44258;51.288;12.068;2022-07-06T11:00:23;3.03;;;1.40;;
58470;SDS011;44258;51.288;12.068;2022-07-06T11:02:49;2.22;;;1.00;;
58470;SDS011;44258;51.288;12.068;2022-07-06T11:08:08;2.75;;;1.10;;
58470;SDS011;44258;51.288;12.068;2022-07-06T11:10:45;1.67;;;0.93;;
58470;SDS011;44258;51.288;12.068;2022-07-06T11:13:24;2.10;;;1.00;;
58470;SDS011;44258;51.288;12.068;2022-07-06T11:15:52;2.30;;;1.00;;
58470;SDS011;44258;51.288;12.068;2022-07-06T11:18:28;4.97;;;1.13;;
58470;SDS011;44258;51.288;12.068;2022-07-06T11:21:15;2.83;;;1.08;;
58470;SDS011;44258;51.288;12.068;2022-07-06T11:23:42;2.58;;;1.30;;
58470;SDS011;44258;51.288;12.068;2022-07-06T11:26:11;1.52;;;1.00;;
58470;SDS011;44258;51.288;12.068;2022-07-06T11:28:39;1.38;;;0.98;;
58470;SDS011;44258;51.288;12.068;2022-07-06T11:31:07;2.20;;;1.10;;
58470;SDS011;44258;51.288;12.068;2022-07-06T11:33:33;5.35;;;1.42;;
58470;SDS011;44258;51.288;12.068;2022-07-06T11:36:16;2.08;;;1.05;;
58470;SDS011;44258;51.288;12.068;2022-07-06T11:38:44;1.45;;;1.00;;
58470;SDS011;44258;51.288;12.068;2022-07-06T11:41:11;2.20;;;1.15;;
58470;SDS011;44258;51.288;12.068;2022-07-06T11:43:39;3.00;;;1.33;;
58470;SDS011;44258;51.288;12.068;2022-07-06T11:46:21;2.17;;;1.27;;
58470;SDS011;44258;51.288;12.068;2022-07-06T11:48:49;1.10;;;1.00;;
58470;SDS011;44258;51.288;12.068;2022-07-06T11:51:17;3.90;;;1.13;;
58470;SDS011;44258;51.288;12.068;2022-07-06T11:53:44;1.30;;;0.90;;
58470;SDS011;44258;51.288;12.068;2022-07-06T11:56:12;1.52;;;1.17;;
58470;SDS011;44258;51.288;12.068;2022-07-06T11:58:40;1.20;;;0.90;;
58470;SDS011;44258;51.288;12.068;2022-07-06T12:01:11;2.50;;;1.02;;
58470;SDS011;44258;51.288;12.068;2022-07-06T12:03:42;1.60;;;0.90;;
58470;SDS011;44258;51.288;12.068;2022-07-06T12:06:18;3.58;;;1.50;;
58470;SDS011;44258;51.288;12.068;2022-07-06T12:08:47;2.22;;;1.27;;
58470;SDS011;44258;51.288;12.068;2022-07-06T12:11:16;1.30;;;0.93;;
58470;SDS011;44258;51.288;12.068;2022-07-06T12:13:45;1.67;;;1.02;;
58470;SDS011;44258;51.288;12.068;2022-07-06T12:16:12;2.13;;;1.17;;
58470;SDS011;44258;51.288;12.068;2022-07-06T12:18:41;2.22;;;1.15;;
58470;SDS011;44258;51.288;12.068;2022-07-06T12:21:09;4.22;;;1.15;;
58470;SDS011;44258;51.288;12.068;2022-07-06T12:23:39;2.20;;;1.00;;
58470;SDS011;44258;51.288;12.068;2022-07-06T12:26:06;1.25;;;0.93;;
58470;SDS011;44258;51.288;12.068;2022-07-06T12:28:33;2.38;;;1.10;;
58470;SDS011;44258;51.288;12.068;2022-07-06T12:31:00;3.42;;;1.50;;
58470;SDS011;44258;51.288;12.068;2022-07-06T12:33:26;2.83;;;1.30;;
58470;SDS011;44258;51.288;12.068;2022-07-06T12:35:54;2.05;;;1.20;;
58470;SDS011;44258;51.288;12.068;2022-07-06T12:38:21;1.55;;;0.95;;
58470;SDS011;44258;51.288;12.068;2022-07-06T12:40:49;1.52;;;0.95;;
58470;SDS011;44258;51.288;12.068;2022-07-06T12:48:56;1.98;;;1.00;;
58470;SDS011;44258;51.288;12.068;2022-07-06T12:51:25;3.50;;;1.23;;
58470;SDS011;44258;51.288;12.068;2022-07-06T12:53:52;1.55;;;0.70;;
58470;SDS011;44258;51.288;12.068;2022-07-06T12:56:18;5.05;;;1.20;;
58470;SDS011;44258;51.288;12.068;2022-07-06T12:58:56;1.58;;;1.00;;
58470;SDS011;44258;51.288;12.068;2022-07-06T13:01:23;3.42;;;0.82;;
58470;SDS011;44258;51.288;12.068;2022-07-06T13:03:53;1.77;;;0.80;;
58470;SDS011;44258;51.288;12.068;2022-07-06T13:06:32;1.45;;;0.80;;
58470;SDS011;44258;51.288;12.068;2022-07-06T13:08:59;3.08;;;0.90;;
58470;SDS011;44258;51.288;12.068;2022-07-06T13:11:26;2.67;;;0.80;;
58470;SDS011;44258;51.288;12.068;2022-07-06T13:13:52;0.70;;;0.60;;
58470;SDS011;44258;51.288;12.068;2022-07-06T13:16:19;2.35;;;1.10;;
58470;SDS011;44258;51.288;12.068;2022-07-06T13:18:47;0.85;;;0.80;;
58470;SDS011;44258;51.288;12.068;2022-07-06T13:21:13;2.05;;;0.85;;
58470;SDS011;44258;51.288;12.068;2022-07-06T13:23:41;2.15;;;0.80;;
58470;SDS011;44258;51.288;12.068;2022-07-06T13:26:08;1.88;;;0.70;;
58470;SDS011;44258;51.288;12.068;2022-07-06T13:28:34;1.02;;;0.60;;
58470;SDS011;44258;51.288;12.068;2022-07-06T13:31:01;1.00;;;0.63;;
58470;SDS011;44258;51.288;12.068;2022-07-06T13:33:27;4.78;;;1.10;;
58470;SDS011;44258;51.288;12.068;2022-07-06T13:35:54;2.00;;;1.00;;
58470;SDS011;44258;51.288;12.068;2022-07-06T13:38:20;1.95;;;0.82;;
58470;SDS011;44258;51.288;12.068;2022-07-06T13:40:48;2.10;;;1.00;;
58470;SDS011;44258;51.288;12.068;2022-07-06T13:43:14;0.90;;;0.70;;
58470;SDS011;44258;51.288;12.068;2022-07-06T13:45:41;1.42;;;0.85;;
58470;SDS011;44258;51.288;12.068;2022-07-06T13:48:07;0.70;;;0.70;;
58470;SDS011;44258;51.288;12.068;2022-07-06T13:50:34;2.67;;;1.08;;
58470;SDS011;44258;51.288;12.068;2022-07-06T13:53:00;2.95;;;0.93;;
58470;SDS011;44258;51.288;12.068;2022-07-06T13:55:27;1.83;;;0.77;;
58470;SDS011;44258;51.288;12.068;2022-07-06T13:57:55;1.73;;;0.85;;
58470;SDS011;44258;51.288;12.068;2022-07-06T14:00:21;1.92;;;0.90;;
58470;SDS011;44258;51.288;12.068;2022-07-06T14:02:48;2.70;;;0.90;;
58470;SDS011;44258;51.288;12.068;2022-07-06T14:05:15;1.50;;;0.80;;
58470;SDS011;44258;51.288;12.068;2022-07-06T14:07:41;2.90;;;0.95;;
58470;SDS011;44258;51.288;12.068;2022-07-06T14:10:08;1.05;;;0.95;;
58470;SDS011;44258;51.288;12.068;2022-07-06T14:12:34;1.42;;;1.00;;
58470;SDS011;44258;51.288;12.068;2022-07-06T14:15:02;2.90;;;0.80;;
58470;SDS011;44258;51.288;12.068;2022-07-06T14:17:29;1.13;;;0.70;;
58470;SDS011;44258;51.288;12.068;2022-07-06T14:19:56;0.80;;;0.73;;
58470;SDS011;44258;51.288;12.068;2022-07-06T14:22:23;1.20;;;0.70;;
58470;SDS011;44258;51.288;12.068;2022-07-06T14:24:49;1.13;;;0.63;;
58470;SDS011;44258;51.288;12.068;2022-07-06T14:27:16;1.30;;;0.90;;
58470;SDS011;44258;51.288;12.068;2022-07-06T14:29:42;1.23;;;0.95;;
58470;SDS011;44258;51.288;12.068;2022-07-06T14:32:10;1.38;;;0.80;;
58470;SDS011;44258;51.288;12.068;2022-07-06T14:34:36;1.08;;;0.77;;
58470;SDS011;44258;51.288;12.068;2022-07-06T14:37:03;2.22;;;1.00;;
58470;SDS011;44258;51.288;12.068;2022-07-06T14:39:30;1.48;;;0.82;;
58470;SDS011;44258;51.288;12.068;2022-07-06T14:41:57;0.88;;;0.70;;
58470;SDS011;44258;51.288;12.068;2022-07-06T14:44:23;3.00;;;1.00;;
58470;SDS011;44258;51.288;12.068;2022-07-06T14:46:51;1.15;;;0.70;;
58470;SDS011;44258;51.288;12.068;2022-07-06T14:49:19;1.38;;;0.77;;